Time;durP1;ratioP1;P1;durP2;ratioP2;P2;SDS_P1;SDS_P2;PMS_P1;PMS_P2;Temp;Humidity;BMP_temperature;BMP_pressure;BME280_temperature;BME280_humidity;BME280_pressure;Samples;Min_cycle;Max_cycle;Signal;HPM_P1;HPM_P2
2023/06/28 00:01:15;;;;;;;8.00;7.00;;;;;;;15.75;100.00;97028.38;110111;1241;68801;-64
2023/06/28 00:04:05;;;;;;;9.30;7.90;;;;;;;15.76;100.00;97021.81;110115;1241;69644;-65
2023/06/28 00:06:34;;;;;;;8.20;7.40;;;;;;;15.76;100.00;97017.02;110163;1241;59330;-65
2023/06/28 00:09:05;;;;;;;8.50;7.50;;;;;;;15.77;100.00;97016.91;110165;1244;58928;-65
2023/06/28 00:11:36;;;;;;;9.00;7.40;;;;;;;15.76;100.00;97021.64;110194;1241;70508;-65
2023/06/28 00:14:08;;;;;;;11.20;7.00;;;;;;;15.76;100.00;97022.85;110189;1244;69286;-64
2023/06/28 00:16:39;;;;;;;6.50;5.90;;;;;;;15.77;100.00;97030.81;110184;1243;68474;-66
2023/06/28 00:19:09;;;;;;;7.10;6.10;;;;;;;15.78;100.00;97036.90;110219;1247;58945;-63
2023/06/28 00:21:41;;;;;;;8.40;6.80;;;;;;;15.77;100.00;97035.42;110181;1243;58877;-65
2023/06/28 00:24:12;;;;;;;8.70;6.60;;;;;;;15.75;100.00;97033.55;110186;1245;70945;-65
2023/06/28 00:26:45;;;;;;;8.00;6.50;;;;;;;15.71;100.00;97032.64;110187;1243;69275;-65
2023/06/28 00:29:18;;;;;;;7.80;6.90;;;;;;;15.71;100.00;97031.58;110209;1241;68395;-66
2023/06/28 00:31:51;;;;;;;9.80;7.70;;;;;;;15.65;100.00;97027.53;110148;1241;58940;-64
2023/06/28 00:34:28;;;;;;;10.10;7.80;;;;;;;15.62;100.00;97024.94;110179;1244;58908;-64
2023/06/28 00:37:04;;;;;;;8.90;7.70;;;;;;;15.61;100.00;97026.85;110200;1244;70632;-64
2023/06/28 00:39:38;;;;;;;9.40;8.50;;;;;;;15.57;100.00;97021.98;110160;1241;69127;-64
2023/06/28 00:42:11;;;;;;;10.60;8.40;;;;;;;15.54;100.00;97015.58;110124;1244;69638;-67
2023/06/28 00:44:44;;;;;;;11.30;9.80;;;;;;;15.53;100.00;97012.14;110193;1244;58933;-66
2023/06/28 00:47:18;;;;;;;12.90;10.00;;;;;;;15.51;100.00;97013.73;110190;1245;58847;-64
2023/06/28 00:49:55;;;;;;;9.60;8.60;;;;;;;15.50;100.00;97020.84;110209;1244;70501;-64
2023/06/28 00:52:28;;;;;;;10.60;8.70;;;;;;;15.52;100.00;97026.48;110202;1244;67554;-66
2023/06/28 00:55:00;;;;;;;9.90;8.70;;;;;;;15.53;100.00;97014.06;110134;1241;67596;-64
2023/06/28 00:57:34;;;;;;;9.80;7.80;;;;;;;15.53;100.00;97012.11;110190;1241;59211;-63
2023/06/28 01:00:12;;;;;;;8.90;7.60;;;;;;;15.53;100.00;97012.28;110146;1243;58876;-65
2023/06/28 01:02:46;;;;;;;9.20;6.70;;;;;;;15.54;100.00;97011.20;110203;1244;69831;-65
2023/06/28 01:05:20;;;;;;;11.60;7.40;;;;;;;15.53;100.00;97008.92;110163;1243;69485;-65
2023/06/28 01:07:54;;;;;;;9.20;7.50;;;;;;;15.52;100.00;97018.15;110117;1243;68567;-64
2023/06/28 01:10:28;;;;;;;10.80;7.20;;;;;;;15.52;100.00;97021.38;110134;1241;59294;-64
2023/06/28 01:13:04;;;;;;;8.10;6.70;;;;;;;15.50;100.00;97024.40;110116;1244;58873;-65
2023/06/28 01:15:43;;;;;;;8.50;7.10;;;;;;;15.46;100.00;97029.20;110169;1241;70612;-65
2023/06/28 01:18:19;;;;;;;10.00;8.20;;;;;;;15.43;100.00;97036.48;110143;1244;69147;-64
2023/06/28 01:20:56;;;;;;;9.70;7.00;;;;;;;15.33;100.00;97036.80;110148;1244;69342;-65
2023/06/28 01:23:31;;;;;;;10.70;9.00;;;;;;;15.27;100.00;97028.56;108520;1245;2163846;-65
2023/06/28 01:26:12;;;;;;;12.20;9.60;;;;;;;15.22;100.00;97022.00;110167;1244;58828;-65
2023/06/28 01:28:48;;;;;;;13.30;10.90;;;;;;;15.20;100.00;97021.58;110128;1244;68871;-67
2023/06/28 01:31:21;;;;;;;11.10;9.70;;;;;;;15.15;100.00;97028.18;110147;1241;68505;-66
2023/06/28 01:33:52;;;;;;;10.20;9.10;;;;;;;15.08;100.00;97031.69;110165;1244;69106;-65
2023/06/28 01:36:23;;;;;;;12.10;10.40;;;;;;;15.01;100.00;97026.73;110173;1241;58870;-67
2023/06/28 01:38:55;;;;;;;10.70;9.60;;;;;;;14.97;100.00;97031.83;110116;1244;58914;-66
2023/06/28 01:41:27;;;;;;;11.10;9.00;;;;;;;14.99;100.00;97032.69;110158;1241;69846;-64
2023/06/28 01:44:05;;;;;;;12.50;9.40;;;;;;;14.94;100.00;97035.04;110102;1244;69245;-65
2023/06/28 01:46:40;;;;;;;12.80;10.40;;;;;;;14.95;100.00;97043.13;110143;1245;68559;-64
2023/06/28 01:49:12;;;;;;;12.20;9.60;;;;;;;14.91;100.00;97041.38;110144;1245;58899;-64
2023/06/28 01:51:45;;;;;;;14.00;11.20;;;;;;;14.93;100.00;97032.45;110157;1241;58891;-65
2023/06/28 01:54:21;;;;;;;14.60;12.70;;;;;;;14.95;100.00;97029.19;110201;1241;70581;-65
2023/06/28 01:56:52;;;;;;;13.10;10.80;;;;;;;14.93;100.00;97030.27;110212;1241;68570;-65
2023/06/28 01:59:27;;;;;;;13.20;11.80;;;;;;;14.94;100.00;97031.81;110165;1241;68386;-63
2023/06/28 02:02:00;;;;;;;13.90;11.10;;;;;;;14.92;100.00;97033.20;110170;1241;58909;-64
2023/06/28 02:04:30;;;;;;;11.60;9.70;;;;;;;14.88;100.00;97042.02;110150;1241;58856;-65
2023/06/28 02:07:02;;;;;;;11.40;10.20;;;;;;;14.85;100.00;97043.74;110159;1241;70754;-64
2023/06/28 02:09:31;;;;;;;9.80;8.60;;;;;;;14.84;100.00;97043.83;110136;1245;69270;-64
2023/06/28 02:12:03;;;;;;;11.80;8.70;;;;;;;14.86;100.00;97044.48;110093;1244;69283;-64
2023/06/28 02:14:34;;;;;;;9.00;7.90;;;;;;;14.91;100.00;97045.40;110124;1244;59202;-66
2023/06/28 02:17:05;;;;;;;11.40;9.10;;;;;;;14.95;100.00;97038.92;110172;1244;59124;-63
2023/06/28 02:19:35;;;;;;;9.00;8.10;;;;;;;14.97;100.00;97040.59;110165;1241;68892;-66
2023/06/28 02:22:08;;;;;;;9.10;7.70;;;;;;;15.00;100.00;97040.36;110167;1244;69307;-64
2023/06/28 02:24:39;;;;;;;8.60;7.30;;;;;;;15.03;100.00;97036.90;110162;1244;69245;-64
2023/06/28 02:27:11;;;;;;;8.20;7.40;;;;;;;15.06;100.00;97039.43;110133;1241;58947;-65
2023/06/28 02:29:44;;;;;;;7.80;7.00;;;;;;;15.07;100.00;97040.34;110147;1244;58875;-64
2023/06/28 02:32:17;;;;;;;7.50;6.00;;;;;;;15.09;100.00;97039.60;110116;1244;70948;-65
2023/06/28 02:34:49;;;;;;;9.90;7.70;;;;;;;15.10;100.00;97035.16;110161;1244;69287;-66
2023/06/28 02:37:21;;;;;;;9.10;7.50;;;;;;;15.11;100.00;97036.64;110090;1241;68445;-65
2023/06/28 02:39:52;;;;;;;9.40;7.40;;;;;;;15.00;100.00;97042.77;110154;1245;58922;-65
2023/06/28 02:42:22;;;;;;;9.60;8.60;;;;;;;14.99;100.00;97037.58;110175;1241;58928;-65
2023/06/28 02:44:58;;;;;;;9.50;7.60;;;;;;;15.11;100.00;97045.74;110254;1244;69867;-65
2023/06/28 02:47:31;;;;;;;8.50;7.40;;;;;;;15.13;100.00;97055.24;110128;1244;69229;-66
2023/06/28 02:50:05;;;;;;;10.40;7.90;;;;;;;15.14;100.00;97058.83;110188;1241;68349;-66
2023/06/28 02:52:44;;;;;;;12.70;10.90;;;;;;;15.14;100.00;97060.88;110123;1244;58973;-64
2023/06/28 02:55:17;;;;;;;10.20;8.70;;;;;;;15.12;100.00;97055.69;110120;1244;59122;-65
2023/06/28 02:57:48;;;;;;;9.40;8.10;;;;;;;15.07;100.00;97056.10;110161;1245;70305;-65
2023/06/28 03:00:20;;;;;;;13.20;10.90;;;;;;;15.07;100.00;97054.91;110156;1244;68167;-64
2023/06/28 03:02:52;;;;;;;11.40;10.20;;;;;;;15.02;100.00;97059.98;110144;1241;68565;-64
2023/06/28 03:05:24;;;;;;;11.50;9.60;;;;;;;15.01;100.00;97060.43;110103;1241;58943;-64
2023/06/28 03:07:54;;;;;;;8.40;7.30;;;;;;;15.04;100.00;97066.92;110166;1244;58891;-65
2023/06/28 03:10:24;;;;;;;10.90;8.70;;;;;;;15.05;100.00;97071.20;110062;1244;71154;-64
2023/06/28 03:12:55;;;;;;;11.90;10.50;;;;;;;15.07;100.00;97067.38;110117;1245;69837;-65
2023/06/28 03:15:25;;;;;;;11.30;10.20;;;;;;;15.00;100.00;97062.04;110186;1244;67661;-64
2023/06/28 03:17:55;;;;;;;10.80;8.60;;;;;;;14.87;100.00;97056.86;110150;1241;58955;-64
2023/06/28 03:20:27;;;;;;;9.10;8.20;;;;;;;14.83;100.00;97058.59;110182;1245;58950;-64
2023/06/28 03:22:59;;;;;;;9.20;7.40;;;;;;;14.80;100.00;97068.40;110109;1244;69927;-65
2023/06/28 03:25:31;;;;;;;8.90;7.20;;;;;;;14.75;100.00;97075.11;110131;1246;69266;-65
2023/06/28 03:28:02;;;;;;;7.40;6.30;;;;;;;14.66;100.00;97074.61;110067;1241;68485;-64
2023/06/28 03:30:32;;;;;;;8.00;6.50;;;;;;;14.66;100.00;97075.30;110127;1244;58889;-65
2023/06/28 03:33:03;;;;;;;8.20;6.90;;;;;;;14.60;100.00;97074.88;110096;1244;58862;-65
2023/06/28 03:35:34;;;;;;;7.80;7.00;;;;;;;14.49;100.00;97078.81;110182;1241;70620;-64
2023/06/28 03:38:04;;;;;;;;;;;;;;;14.43;100.00;97079.59;110171;1241;68471;-65
2023/06/28 03:40:33;;;;;;;7.40;6.60;;;;;;;14.35;100.00;97070.50;110094;1245;68494;-64
2023/06/28 03:43:03;;;;;;;;;;;;;;;14.28;100.00;97068.38;110096;1244;58944;-64
2023/06/28 03:45:36;;;;;;;9.90;8.00;;;;;;;14.19;100.00;97066.33;110083;1244;58875;-65
2023/06/28 03:48:07;;;;;;;9.10;7.10;;;;;;;14.18;100.00;97055.55;110192;1244;70879;-66
2023/06/28 03:50:36;;;;;;;11.40;8.90;;;;;;;14.20;100.00;97046.34;110165;1241;68449;-66
2023/06/28 03:53:06;;;;;;;;;;;;;;;14.17;100.00;97046.89;110197;1241;69598;-65
2023/06/28 03:55:37;;;;;;;8.40;7.30;;;;;;;14.18;100.00;97050.65;110160;1241;58995;-65
2023/06/28 03:58:06;;;;;;;8.40;6.80;;;;;;;14.20;100.00;97049.60;110118;1244;58849;-67
2023/06/28 04:00:36;;;;;;;9.30;6.90;;;;;;;14.23;100.00;97048.81;110168;1244;70538;-64
2023/06/28 04:03:05;;;;;;;;;;;;;;;14.25;100.00;97046.84;110177;1241;68576;-64
2023/06/28 04:05:36;;;;;;;7.00;5.90;;;;;;;14.29;100.00;97043.59;110103;1244;68726;-66
2023/06/28 04:08:08;;;;;;;7.90;6.50;;;;;;;14.41;100.00;97047.21;110201;1241;58960;-64
2023/06/28 04:10:38;;;;;;;9.20;7.00;;;;;;;14.48;100.00;97047.25;110205;1243;58844;-64
2023/06/28 04:13:08;;;;;;;7.20;6.40;;;;;;;14.44;100.00;97044.11;110157;1241;70664;-65
2023/06/28 04:15:38;;;;;;;10.20;8.10;;;;;;;14.59;100.00;97042.35;110177;1244;68857;-66
2023/06/28 04:18:08;;;;;;;12.70;9.30;;;;;;;14.63;100.00;97045.23;110166;1245;69300;-66
2023/06/28 04:20:37;;;;;;;10.70;9.40;;;;;;;14.65;100.00;97051.93;110132;1242;58955;-65
2023/06/28 04:23:07;;;;;;;;;;;;;;;14.64;100.00;97050.98;110147;1241;58927;-64
2023/06/28 04:25:37;;;;;;;9.40;8.30;;;;;;;14.64;100.00;97056.52;110151;1241;71004;-65
2023/06/28 04:28:07;;;;;;;11.00;8.70;;;;;;;14.66;100.00;97062.37;110153;1241;69826;-66
2023/06/28 04:30:37;;;;;;;;;;;;;;;14.68;100.00;97062.02;110175;1245;69177;-64
2023/06/28 04:33:09;;;;;;;9.80;8.20;;;;;;;14.71;100.00;97059.07;110171;1241;59401;-64
2023/06/28 04:35:42;;;;;;;10.50;8.50;;;;;;;14.73;100.00;97061.86;110179;1243;58891;-66
2023/06/28 04:38:13;;;;;;;8.20;7.10;;;;;;;14.79;100.00;97066.52;110146;1245;70664;-64
2023/06/28 04:40:42;;;;;;;7.80;7.00;;;;;;;14.87;100.00;97064.01;110154;1243;69049;-64
2023/06/28 04:43:14;;;;;;;7.80;7.00;;;;;;;14.92;100.00;97063.23;110139;1241;69237;-64
2023/06/28 04:45:43;;;;;;;8.10;7.30;;;;;;;14.96;100.00;97055.64;110120;1241;59311;-64
2023/06/28 04:48:13;;;;;;;10.80;6.60;;;;;;;15.02;100.00;97053.61;110200;1241;58985;-63
2023/06/28 04:50:46;;;;;;;7.80;6.70;;;;;;;15.09;100.00;97045.59;110143;1241;70971;-64
2023/06/28 04:53:16;;;;;;;7.20;6.50;;;;;;;15.15;100.00;97044.31;110131;1241;69430;-64
2023/06/28 04:55:47;;;;;;;8.20;7.30;;;;;;;15.20;100.00;97050.48;110155;1241;68505;-65
2023/06/28 04:58:17;;;;;;;7.30;6.50;;;;;;;15.22;100.00;97047.64;110165;1244;58919;-66
2023/06/28 05:00:47;;;;;;;7.80;7.00;;;;;;;15.24;100.00;97044.34;110192;1242;58863;-65
2023/06/28 05:03:17;;;;;;;8.00;7.20;;;;;;;15.26;100.00;97044.27;110173;1244;71147;-63
2023/06/28 05:05:47;;;;;;;;;;;;;;;15.27;100.00;97045.36;110223;1241;68582;-65
2023/06/28 05:08:17;;;;;;;6.90;5.60;;;;;;;15.30;100.00;97052.36;110171;1241;69286;-64
2023/06/28 05:10:46;;;;;;;6.30;5.70;;;;;;;15.37;100.00;97055.91;110130;1241;58910;-63
2023/06/28 05:13:16;;;;;;;7.20;5.10;;;;;;;15.42;100.00;97060.84;110162;1244;58959;-64
2023/06/28 05:15:45;;;;;;;;;;;;;;;15.47;100.00;97066.33;110243;1241;70618;-63
2023/06/28 05:18:15;;;;;;;8.00;6.30;;;;;;;15.43;100.00;97060.36;110211;1245;69286;-64
2023/06/28 05:20:44;;;;;;;6.60;5.90;;;;;;;15.44;100.00;97063.56;110118;1241;69203;-63
2023/06/28 05:23:20;;;;;;;5.90;5.00;;;;;;;15.50;100.00;97062.85;110204;1243;58903;-66
2023/06/28 05:25:50;;;;;;;8.10;6.50;;;;;;;15.46;100.00;97068.70;110217;1243;58825;-63
2023/06/28 05:28:19;;;;;;;;;;;;;;;15.43;100.00;97071.41;110226;1241;69831;-64
2023/06/28 05:30:48;;;;;;;8.30;6.60;;;;;;;15.42;100.00;97074.73;110222;1241;69417;-64
2023/06/28 05:33:17;;;;;;;7.70;6.20;;;;;;;15.37;100.00;97074.83;110192;1245;69849;-63
2023/06/28 05:35:47;;;;;;;7.60;6.80;;;;;;;15.36;100.00;97077.01;110190;1244;58941;-63
2023/06/28 05:38:18;;;;;;;7.40;6.40;;;;;;;15.40;100.00;97080.01;110157;1242;58867;-64
2023/06/28 05:40:52;;;;;;;9.40;7.30;;;;;;;15.41;100.00;97083.70;110142;1241;70977;-63
2023/06/28 05:43:22;;;;;;;9.10;7.20;;;;;;;15.41;100.00;97085.55;110196;1241;69890;-66
2023/06/28 05:45:52;;;;;;;;;;;;;;;15.38;100.00;97085.40;110162;1244;69671;-65
2023/06/28 05:48:21;;;;;;;7.20;6.50;;;;;;;15.42;100.00;97088.00;110158;1244;59700;-64
2023/06/28 05:50:51;;;;;;;6.60;5.90;;;;;;;15.46;100.00;97086.72;110154;1244;58875;-63
2023/06/28 05:53:21;;;;;;;8.20;6.20;;;;;;;15.51;100.00;97093.79;110152;1244;70864;-63
2023/06/28 05:55:50;;;;;;;7.40;5.50;;;;;;;15.61;100.00;97094.41;110106;1244;69305;-63
2023/06/28 05:58:20;;;;;;;7.70;6.90;;;;;;;15.61;100.00;97096.73;110106;1241;69138;-66
2023/06/28 06:00:50;;;;;;;7.40;5.60;;;;;;;15.62;100.00;97095.71;110137;1243;58972;-64
2023/06/28 06:03:20;;;;;;;5.90;5.30;;;;;;;15.64;100.00;97096.81;110142;1244;58906;-64
2023/06/28 06:05:49;;;;;;;6.90;5.30;;;;;;;15.65;100.00;97094.02;110140;1244;70198;-66
2023/06/28 06:08:19;;;;;;;6.90;5.50;;;;;;;15.73;100.00;97089.91;110107;1243;69058;-63
2023/06/28 06:10:48;;;;;;;6.30;5.10;;;;;;;15.73;100.00;97086.23;110182;1244;69843;-65
2023/06/28 06:13:17;;;;;;;7.20;5.70;;;;;;;15.80;100.00;97087.13;110084;1244;58878;-64
2023/06/28 06:15:46;;;;;;;6.70;6.00;;;;;;;15.82;100.00;97087.64;110138;1245;58843;-65
2023/06/28 06:18:16;;;;;;;7.10;6.00;;;;;;;15.78;100.00;97084.86;110033;1244;70022;-66
2023/06/28 06:20:45;;;;;;;6.80;6.10;;;;;;;15.83;100.00;97087.70;110117;1241;69683;-64
2023/06/28 06:23:14;;;;;;;7.30;6.40;;;;;;;15.90;100.00;97083.54;110127;1241;69321;-66
2023/06/28 06:25:43;;;;;;;8.40;6.00;;;;;;;16.00;100.00;97084.65;110083;1244;58885;-65
2023/06/28 06:28:12;;;;;;;8.30;6.60;;;;;;;16.06;100.00;97086.34;110154;1241;58909;-65
2023/06/28 06:30:42;;;;;;;6.90;5.80;;;;;;;16.11;100.00;97088.95;110139;1244;71153;-63
2023/06/28 06:33:12;;;;;;;7.70;6.50;;;;;;;16.21;100.00;97090.02;110155;1244;69232;-64
2023/06/28 06:35:41;;;;;;;;;;;;;;;16.22;100.00;97090.48;110158;1244;69300;-64
2023/06/28 06:38:12;;;;;;;7.00;5.90;;;;;;;16.21;100.00;97089.67;110131;1244;58945;-64
2023/06/28 06:40:41;;;;;;;8.00;6.50;;;;;;;16.25;100.00;97093.70;110162;1245;58831;-65
2023/06/28 06:43:11;;;;;;;8.20;6.30;;;;;;;16.18;100.00;97096.52;110151;1244;71186;-64
2023/06/28 06:45:40;;;;;;;8.70;6.50;;;;;;;16.21;100.00;97100.23;110119;1245;68569;-65
2023/06/28 06:48:09;;;;;;;7.30;6.00;;;;;;;16.23;100.00;97094.02;110147;1244;69681;-65
2023/06/28 06:50:39;;;;;;;9.70;7.00;;;;;;;16.20;100.00;97101.38;110097;1244;59352;-64
2023/06/28 06:53:08;;;;;;;9.30;7.20;;;;;;;16.20;100.00;97101.55;110141;1241;59008;-64
2023/06/28 06:55:37;;;;;;;7.90;6.60;;;;;;;16.26;100.00;97105.53;110153;1243;69933;-65
2023/06/28 06:58:07;;;;;;;8.30;6.60;;;;;;;16.22;100.00;97106.34;110139;1243;69229;-65
2023/06/28 07:00:37;;;;;;;7.60;6.40;;;;;;;16.30;100.00;97104.77;110132;1245;69726;-65
2023/06/28 07:03:06;;;;;;;;;;;;;;;16.42;100.00;97103.27;110108;1244;58915;-65
2023/06/28 07:05:35;;;;;;;5.70;4.80;;;;;;;16.53;100.00;97096.41;110169;1243;58865;-65
2023/06/28 07:08:04;;;;;;;8.30;7.00;;;;;;;16.65;100.00;97096.67;110141;1244;70712;-64
2023/06/28 07:10:35;;;;;;;9.10;7.20;;;;;;;16.67;100.00;97101.04;110167;1244;69922;-65
2023/06/28 07:13:04;;;;;;;6.80;6.00;;;;;;;16.65;100.00;97097.36;110135;1241;69227;-65
2023/06/28 07:15:33;;;;;;;6.80;6.10;;;;;;;16.55;100.00;97095.11;110149;1243;59744;-67
2023/06/28 07:18:03;;;;;;;7.80;6.40;;;;;;;16.68;100.00;97095.14;110142;1244;59663;-66
2023/06/28 07:20:33;;;;;;;7.60;6.20;;;;;;;16.72;100.00;97096.86;110172;1244;70620;-64
2023/06/28 07:23:02;;;;;;;7.50;5.80;;;;;;;16.80;100.00;97097.30;110139;1241;68538;-65
2023/06/28 07:25:32;;;;;;;7.20;5.70;;;;;;;16.80;100.00;97096.34;110121;1244;70233;-65
2023/06/28 07:28:01;;;;;;;7.40;6.60;;;;;;;16.96;100.00;97094.94;110097;1245;59772;-65
2023/06/28 07:30:51;;;;;;;6.70;5.50;;;;;;;16.98;100.00;97095.05;110135;1242;59637;-65
2023/06/28 07:33:23;;;;;;;7.30;5.50;;;;;;;17.05;100.00;97100.11;110106;1244;71965;-66
2023/06/28 07:35:53;;;;;;;7.60;6.30;;;;;;;17.19;100.00;97097.39;110186;1244;69294;-64
2023/06/28 07:38:23;;;;;;;8.10;6.40;;;;;;;17.20;100.00;97096.90;110108;1244;70029;-66
2023/06/28 07:40:53;;;;;;;7.00;6.20;;;;;;;17.19;100.00;97106.38;110104;1244;59766;-64
2023/06/28 07:43:22;;;;;;;7.10;6.30;;;;;;;17.24;100.00;97105.36;110094;1245;59735;-65
2023/06/28 07:45:52;;;;;;;5.80;5.10;;;;;;;17.39;99.90;97104.34;110135;1244;71974;-65
2023/06/28 07:48:21;;;;;;;6.40;5.60;;;;;;;17.59;100.00;97107.85;110151;1244;69856;-65
2023/06/28 07:50:50;;;;;;;5.80;5.20;;;;;;;17.80;100.00;97108.60;110089;1250;69652;-65
2023/06/28 07:53:20;;;;;;;;;;;;;;;17.99;100.00;97118.08;110166;1244;59665;-66
2023/06/28 07:55:49;;;;;;;7.30;5.20;;;;;;;17.92;97.25;97120.92;110114;1245;59634;-65
2023/06/28 07:58:19;;;;;;;6.70;5.20;;;;;;;18.00;98.96;97126.37;110120;1245;71885;-63
2023/06/28 08:00:49;;;;;;;6.30;5.50;;;;;;;17.65;97.24;97129.70;110140;1244;69364;-64
2023/06/28 08:03:19;;;;;;;;;;;;;;;17.52;98.50;97129.16;110122;1245;69271;-64
2023/06/28 08:05:48;;;;;;;;;;;;;;;17.64;95.51;97128.08;110115;1244;59682;-64
2023/06/28 08:08:17;;;;;;;5.60;5.10;;;;;;;17.63;96.38;97128.72;110140;1245;59692;-65
2023/06/28 08:10:46;;;;;;;6.90;5.30;;;;;;;18.01;95.31;97125.77;110040;1241;72050;-66
2023/06/28 08:13:16;;;;;;;5.50;4.90;;;;;;;18.65;94.93;97124.46;110175;1244;69682;-66
2023/06/28 08:15:45;;;;;;;5.20;4.60;;;;;;;18.96;88.14;97128.42;110145;1244;69872;-65
2023/06/28 08:18:16;;;;;;;5.60;5.00;;;;;;;19.28;87.06;97127.67;110146;1244;60064;-65
2023/06/28 08:20:47;;;;;;;5.60;5.10;;;;;;;18.94;84.35;97127.38;110114;1245;59689;-64
2023/06/28 08:23:18;;;;;;;4.60;4.20;;;;;;;18.85;84.08;97124.88;110139;1244;71281;-64
2023/06/28 08:25:47;;;;;;;4.80;4.40;;;;;;;19.27;87.74;97129.14;110109;1244;69729;-66
2023/06/28 08:28:16;;;;;;;5.20;4.40;;;;;;;19.55;86.19;97128.58;110128;1241;67681;-63
2023/06/28 08:30:46;;;;;;;5.00;4.50;;;;;;;19.80;87.24;97136.19;110135;1241;59740;-64
2023/06/28 08:33:15;;;;;;;4.40;3.90;;;;;;;19.94;82.95;97134.80;110153;1245;59665;-65
2023/06/28 08:35:44;;;;;;;5.50;3.90;;;;;;;20.05;80.99;97133.00;110121;1244;71976;-65
2023/06/28 08:38:13;;;;;;;6.10;4.40;;;;;;;19.89;80.03;97134.73;110133;1244;69798;-64
2023/06/28 08:40:42;;;;;;;5.80;4.20;;;;;;;19.93;81.74;97135.24;110141;1244;69831;-64
2023/06/28 08:43:15;;;;;;;;;;;;;;;19.46;76.21;97125.60;110155;1244;59767;-66
2023/06/28 08:45:44;;;;;;;4.20;3.60;;;;;;;19.44;78.72;97117.12;110131;1244;60010;-64
2023/06/28 08:48:14;;;;;;;4.00;3.50;;;;;;;19.51;78.66;97109.63;110113;1241;71480;-65
2023/06/28 08:51:00;;;;;;;6.40;4.10;;;;;;;19.62;79.26;97110.71;110168;1241;69998;-66
2023/06/28 08:53:30;;;;;;;5.20;4.60;;;;;;;19.41;76.87;97109.52;110132;1244;69182;-64
2023/06/28 08:56:01;;;;;;;5.90;4.40;;;;;;;19.24;76.12;97109.14;110067;1245;59815;-65
2023/06/28 08:58:31;;;;;;;5.60;3.80;;;;;;;19.28;77.41;97112.14;110117;1243;59747;-65
2023/06/28 09:01:00;;;;;;;4.50;3.30;;;;;;;19.26;77.19;97115.86;110130;1244;70837;-65
2023/06/28 09:03:30;;;;;;;3.50;3.10;;;;;;;19.67;79.53;97107.09;110156;1241;69236;-64
2023/06/28 09:06:00;;;;;;;4.30;3.00;;;;;;;19.74;73.23;97106.00;110130;1244;69904;-65
2023/06/28 09:08:29;;;;;;;4.00;3.10;;;;;;;19.75;72.83;97107.67;110128;1244;59750;-66
2023/06/28 09:11:02;;;;;;;3.90;3.30;;;;;;;19.82;72.97;97114.64;110135;1244;59742;-64
2023/06/28 09:13:32;;;;;;;4.10;2.70;;;;;;;19.97;71.60;97115.52;110151;1242;71793;-63
2023/06/28 09:16:01;;;;;;;3.70;3.10;;;;;;;20.01;70.14;97115.25;110128;1242;69805;-63
2023/06/28 09:18:30;;;;;;;;;;;;;;;20.22;69.58;97107.64;110169;1244;69910;-64
2023/06/28 09:21:00;;;;;;;4.10;3.10;;;;;;;20.20;67.79;97101.13;110125;1244;59757;-66
2023/06/28 09:23:30;;;;;;;;;;;;;;;20.43;70.45;97100.59;110198;1244;59738;-66
2023/06/28 09:25:59;;;;;;;3.50;2.60;;;;;;;20.69;69.12;97098.42;110144;1245;71670;-66
2023/06/28 09:28:36;;;;;;;3.50;3.00;;;;;;;21.03;69.63;97095.98;110180;1243;69825;-65
2023/06/28 09:31:07;;;;;;;4.20;3.00;;;;;;;21.37;69.67;97095.77;110096;1241;67968;-65
2023/06/28 09:33:37;;;;;;;4.50;3.30;;;;;;;21.35;68.53;97097.17;110146;1244;59699;-65
2023/06/28 09:36:06;;;;;;;4.10;3.30;;;;;;;21.55;68.34;97096.09;110106;1244;60158;-66
2023/06/28 09:38:42;;;;;;;;;;;;;;;21.31;67.57;97098.23;110134;1243;72016;-65
2023/06/28 09:41:12;;;;;;;4.00;2.90;;;;;;;21.63;69.27;97099.61;110137;1244;69692;-63
2023/06/28 09:43:41;;;;;;;3.90;3.00;;;;;;;21.77;67.74;97100.37;110158;1244;69881;-64
2023/06/28 09:46:18;;;;;;;3.80;2.70;;;;;;;21.40;66.00;97103.39;110145;1244;59781;-64
2023/06/28 09:48:48;;;;;;;3.80;2.40;;;;;;;21.81;66.82;97104.50;110121;1244;59692;-66
2023/06/28 09:51:18;;;;;;;3.90;3.40;;;;;;;22.15;65.68;97097.99;110152;1241;70768;-64
2023/06/28 09:53:54;;;;;;;3.40;3.10;;;;;;;22.39;63.90;97100.45;110088;1244;69133;-64
2023/06/28 09:56:34;;;;;;;4.00;3.00;;;;;;;22.64;64.42;97097.77;110084;1245;69851;-64
2023/06/28 09:59:08;;;;;;;4.30;3.20;;;;;;;22.94;60.91;97102.31;110107;1244;59669;-63
2023/06/28 10:01:57;;;;;;;4.10;2.40;;;;;;;22.97;58.38;97099.83;110097;1244;59672;-65
2023/06/28 10:04:28;;;;;;;3.60;2.20;;;;;;;23.14;59.03;97097.93;110058;1245;71808;-65
2023/06/28 10:07:01;;;;;;;3.20;2.50;;;;;;;23.33;60.58;97097.98;110081;1242;69313;-64
2023/06/28 10:09:40;;;;;;;3.30;2.70;;;;;;;23.28;58.22;97099.08;110132;1244;69833;-67
2023/06/28 10:12:16;;;;;;;3.10;2.20;;;;;;;23.28;59.92;97097.13;110141;1245;59808;-66
2023/06/28 10:15:18;;;;;;;4.20;2.40;;;;;;;23.36;60.39;97094.02;110172;1243;59700;-64
2023/06/28 10:17:49;;;;;;;4.10;2.30;;;;;;;23.25;56.48;97093.57;110132;1244;71996;-64
2023/06/28 10:20:18;;;;;;;3.20;2.60;;;;;;;23.16;57.53;97094.71;110097;1246;69405;-65
2023/06/28 10:22:48;;;;;;;4.50;2.80;;;;;;;23.02;59.12;97097.27;110092;1245;69862;-64
2023/06/28 10:25:18;;;;;;;4.80;2.90;;;;;;;22.76;58.55;97102.75;110113;1243;59712;-64
2023/06/28 10:27:48;;;;;;;5.20;2.70;;;;;;;22.50;59.37;97104.27;110156;1244;59605;-65
2023/06/28 10:30:18;;;;;;;3.70;2.80;;;;;;;22.22;60.84;97103.19;110151;1245;71963;-67
2023/06/28 10:32:51;;;;;;;3.90;2.80;;;;;;;21.89;60.61;97101.10;110203;1244;69847;-65
2023/06/28 10:35:21;;;;;;;4.40;2.50;;;;;;;21.77;62.81;97100.25;110136;1244;69253;-65
2023/06/28 10:37:51;;;;;;;3.70;2.80;;;;;;;21.67;62.32;97100.19;110121;1241;59674;-65
2023/06/28 10:40:20;;;;;;;3.30;2.50;;;;;;;21.61;63.01;97095.98;110139;1244;59689;-65
2023/06/28 10:42:49;;;;;;;4.70;2.80;;;;;;;21.45;62.97;97096.48;110138;1244;71423;-65
2023/06/28 10:45:36;;;;;;;4.00;3.00;;;;;;;21.25;63.01;97093.23;110162;1241;68245;-65
2023/06/28 10:48:05;;;;;;;2.90;2.60;;;;;;;21.03;64.72;97095.04;110140;1241;69757;-63
2023/06/28 10:50:41;;;;;;;;;;;;;;;20.94;65.39;97091.77;110165;1244;59771;-66
2023/06/28 11:06:07;;;;;;;3.50;2.80;;;;;;;20.70;65.15;97084.36;107311;1271;609522;-65
2023/06/28 11:08:41;;;;;;;3.00;2.30;;;;;;;20.78;66.46;97082.63;108926;1259;420330;-64
2023/06/28 11:11:22;;;;;;;6.40;4.00;;;;;;;20.78;66.60;97085.52;109331;1255;57676;-64
2023/06/28 11:13:51;;;;;;;6.10;3.20;;;;;;;20.23;66.13;97083.14;109363;1255;67820;-65
2023/06/28 11:16:23;;;;;;;4.30;3.40;;;;;;;20.28;66.53;97078.74;109413;1255;69788;-64
2023/06/28 11:18:52;;;;;;;5.00;3.10;;;;;;;20.34;67.03;97084.69;109390;1251;68322;-65
2023/06/28 11:21:25;;;;;;;4.10;3.20;;;;;;;20.18;66.79;97082.88;109418;1255;57697;-66
2023/06/28 11:23:56;;;;;;;3.80;3.00;;;;;;;20.15;67.25;97082.48;109381;1257;57734;-64
2023/06/28 11:26:38;;;;;;;3.90;2.90;;;;;;;20.24;68.09;97086.40;109359;1255;69427;-63
2023/06/28 11:29:20;;;;;;;4.20;3.50;;;;;;;20.00;68.39;97086.17;109377;1255;69878;-64
2023/06/28 11:31:56;;;;;;;4.60;3.50;;;;;;;19.84;68.81;97084.02;109375;1257;69864;-67
2023/06/28 11:34:28;;;;;;;3.50;3.20;;;;;;;19.97;68.66;97082.98;109327;1255;58111;-65
2023/06/28 11:36:57;;;;;;;4.10;3.20;;;;;;;19.60;67.82;97085.62;109289;1254;58060;-64
2023/06/28 11:39:27;;;;;;;4.80;3.20;;;;;;;19.74;68.29;97083.77;109266;1255;68828;-64
2023/06/28 11:41:56;;;;;;;3.90;3.50;;;;;;;19.84;67.96;97078.14;109281;1251;69295;-64
2023/06/28 11:44:25;;;;;;;5.60;4.30;;;;;;;19.53;70.01;97078.02;109293;1255;69121;-64
2023/06/28 11:46:55;;;;;;;4.30;3.70;;;;;;;19.28;71.14;97076.95;109313;1254;58134;-65
2023/06/28 11:49:23;;;;;;;4.00;2.90;;;;;;;19.41;72.43;97079.55;109281;1254;58035;-64
2023/06/28 11:51:52;;;;;;;4.80;4.30;;;;;;;19.43;72.78;97077.17;109291;1254;69768;-64
2023/06/28 11:54:22;;;;;;;4.30;3.90;;;;;;;18.95;72.07;97077.72;109244;1262;69832;-63